Wall, Pennsylvania
Current Conditions -  °F | °C
As of 3:02 PM on Monday 24 Nov 2014 (Local Time) from KAGC Reporting Station
Few Clouds Few Clouds  
Wind Chill: 67°   Ceiling: Unl
Heat Index: 67°   Visibility: 10mi
Dew Point: 37°   Wind: 26mph
Humidity: 33%   Direction: 220°SW
Pressure: 29.46"   Gusts: 58mph
Location:  40.3941°N, 79.7961°W
Report Text: KAGC 242002Z 22023G50KT 10SM SQ FEW090 19/03 A2946 RMK AO2 PK WND 21050/1955 T01940028
Loading
Personal Weather Stations






























Interactive Weather Map New forecast layout! Learn more

10-Day Weather Forecast

Advertisements
Track Severe Weather on mobile